createdAt,value
2022-12-27T00:01:40.020Z,2.21
2022-12-27T00:04:06.931Z,2.26
2022-12-27T00:06:33.810Z,2.18
2022-12-27T00:09:01.957Z,2.08
2022-12-27T00:11:30.218Z,2.05
2022-12-27T00:14:00.168Z,2.02
2022-12-27T00:16:27.405Z,1.98
2022-12-27T00:18:54.514Z,1.97
2022-12-27T00:21:22.499Z,1.95
2022-12-27T00:23:53.645Z,1.88
2022-12-27T00:26:29.485Z,1.89
2022-12-27T00:28:56.978Z,1.87
2022-12-27T00:31:25.130Z,1.83
2022-12-27T00:33:54.388Z,1.81
2022-12-27T00:36:24.163Z,1.79
2022-12-27T00:38:53.108Z,1.88
2022-12-27T00:41:20.635Z,1.86
2022-12-27T00:43:47.534Z,1.89
2022-12-27T00:46:14.731Z,1.83
2022-12-27T00:48:41.894Z,1.77
2022-12-27T00:51:17.828Z,1.73
2022-12-27T00:53:45.573Z,1.73
2022-12-27T00:56:16.675Z,1.70
2022-12-27T00:58:43.727Z,1.76
2022-12-27T01:01:18.175Z,1.71
2022-12-27T01:03:45.528Z,1.73
2022-12-27T01:06:18.087Z,1.67
2022-12-27T01:08:46.414Z,1.68
2022-12-27T01:11:14.260Z,1.75
2022-12-27T01:13:42.003Z,1.77
2022-12-27T01:16:31.756Z,1.70
2022-12-27T01:18:59.930Z,1.61
2022-12-27T01:21:28.997Z,1.59
2022-12-27T01:23:56.215Z,1.59
2022-12-27T01:26:24.345Z,1.49
2022-12-27T01:28:53.042Z,1.54
2022-12-27T01:31:24.785Z,1.54
2022-12-27T01:33:57.477Z,1.48
2022-12-27T01:36:25.911Z,1.43
2022-12-27T01:38:52.906Z,1.36
2022-12-27T01:41:56.423Z,1.25
2022-12-27T01:44:49.313Z,1.27
2022-12-27T01:47:54.919Z,1.11
2022-12-27T01:50:24.585Z,1.02
2022-12-27T01:53:24.578Z,0.84
2022-12-27T01:56:21.371Z,0.88
2022-12-27T01:58:50.944Z,0.98
2022-12-27T02:01:22.313Z,1.05
2022-12-27T02:04:07.180Z,1.07
2022-12-27T02:06:36.269Z,1.09
2022-12-27T02:09:36.581Z,1.07
2022-12-27T02:12:07.050Z,1.10
2022-12-27T02:14:41.747Z,1.02
2022-12-27T02:17:12.476Z,1.10
2022-12-27T02:19:42.388Z,1.13
2022-12-27T02:22:30.293Z,1.13
2022-12-27T02:25:15.808Z,1.14
2022-12-27T02:28:00.890Z,1.19
2022-12-27T02:30:32.116Z,1.21
2022-12-27T02:32:59.639Z,1.17
2022-12-27T02:35:36.073Z,1.14
2022-12-27T02:38:19.026Z,1.20
2022-12-27T02:41:05.917Z,1.16
2022-12-27T02:43:52.440Z,1.08
2022-12-27T02:46:47.080Z,1.11
2022-12-27T02:49:46.301Z,1.00
2022-12-27T02:53:02.370Z,0.91
2022-12-27T02:56:15.304Z,0.66
2022-12-27T02:58:51.930Z,0.48
2022-12-27T03:01:59.070Z,0.36
2022-12-27T03:04:59.060Z,0.44
2022-12-27T03:07:37.717Z,0.40
2022-12-27T03:10:54.225Z,0.32
2022-12-27T03:13:55.953Z,0.32
2022-12-27T03:16:56.000Z,0.39
2022-12-27T03:19:53.901Z,0.35
2022-12-27T03:25:28.581Z,0.40
2022-12-27T03:28:31.387Z,0.42
2022-12-27T03:31:38.774Z,0.36
2022-12-27T03:34:27.918Z,0.29
2022-12-27T03:37:17.224Z,0.18
2022-12-27T03:39:54.348Z,0.15
2022-12-27T03:42:45.505Z,0.10
2022-12-27T03:45:14.538Z,0.23
2022-12-27T03:47:52.191Z,0.17
2022-12-27T03:50:22.847Z,0.13
2022-12-27T03:53:09.434Z,0.10
2022-12-27T03:55:38.074Z,0.04
2022-12-27T03:58:05.164Z,-0.02
2022-12-27T04:00:32.841Z,-0.04
2022-12-27T04:02:59.820Z,-0.01
2022-12-27T04:05:26.854Z,0.03
2022-12-27T04:08:12.399Z,0.07
2022-12-27T04:10:57.872Z,0.21
2022-12-27T04:13:43.358Z,0.26
2022-12-27T04:16:28.776Z,0.38
2022-12-27T04:19:14.296Z,0.42
2022-12-27T04:21:59.548Z,0.44
2022-12-27T04:24:44.993Z,0.44
2022-12-27T04:27:30.342Z,0.42
2022-12-27T04:30:15.697Z,0.45
2022-12-27T04:33:01.016Z,0.48
2022-12-27T04:35:27.921Z,0.45
2022-12-27T04:37:54.762Z,0.46
2022-12-27T04:40:40.267Z,0.42
2022-12-27T04:43:27.499Z,0.44
2022-12-27T04:46:13.196Z,0.44
2022-12-27T04:48:58.570Z,0.48
2022-12-27T04:51:44.115Z,0.47
2022-12-27T04:54:41.176Z,0.46
2022-12-27T04:57:08.225Z,0.42
2022-12-27T04:59:53.784Z,0.38
2022-12-27T05:02:21.482Z,0.32
2022-12-27T05:04:48.896Z,0.29
2022-12-27T05:07:35.143Z,0.26
2022-12-27T05:10:23.414Z,0.29
2022-12-27T05:13:10.200Z,0.30
2022-12-27T05:15:37.343Z,0.18
2022-12-27T05:18:04.297Z,0.25
2022-12-27T05:20:35.100Z,0.28
2022-12-27T05:23:21.132Z,0.24
2022-12-27T05:25:48.846Z,0.22
2022-12-27T05:28:15.826Z,0.07
2022-12-27T05:30:44.571Z,-0.04
2022-12-27T05:33:12.144Z,-0.05
2022-12-27T05:35:39.508Z,-0.05
2022-12-27T05:38:06.945Z,-0.06
2022-12-27T05:40:35.071Z,-0.10
2022-12-27T05:43:03.197Z,-0.33
2022-12-27T05:45:30.674Z,-0.24
2022-12-27T05:48:00.095Z,-0.17
2022-12-27T05:50:27.955Z,-0.22
2022-12-27T05:53:09.756Z,-0.18
2022-12-27T05:55:36.665Z,-0.14
2022-12-27T05:58:03.813Z,-0.25
2022-12-27T06:00:30.703Z,-0.38
2022-12-27T06:02:58.155Z,-0.41
2022-12-27T06:05:25.114Z,-0.44
2022-12-27T06:07:51.982Z,-0.47
2022-12-27T06:10:18.843Z,-0.45
2022-12-27T06:12:46.418Z,-0.54
2022-12-27T06:15:13.281Z,-0.53
2022-12-27T06:17:40.471Z,-0.52
2022-12-27T06:20:07.947Z,-0.45
2022-12-27T06:22:35.071Z,-0.41
2022-12-27T06:25:01.963Z,-0.38
2022-12-27T06:27:29.128Z,-0.33
2022-12-27T06:29:57.240Z,-0.31
2022-12-27T06:32:24.354Z,-0.35
2022-12-27T06:34:51.428Z,-0.26
2022-12-27T06:37:18.671Z,-0.17
2022-12-27T06:39:45.884Z,-0.11
2022-12-27T06:42:12.544Z,-0.04
2022-12-27T06:44:39.737Z,0.05
2022-12-27T06:47:06.619Z,0.13
2022-12-27T06:49:33.633Z,0.12
2022-12-27T06:52:00.502Z,0.13
2022-12-27T06:54:27.736Z,0.25
2022-12-27T06:56:56.347Z,0.32
2022-12-27T06:59:24.484Z,0.34
2022-12-27T07:01:51.518Z,0.30
2022-12-27T07:04:18.562Z,0.29
2022-12-27T07:06:45.416Z,0.25
2022-12-27T07:09:12.354Z,0.24
2022-12-27T07:11:39.211Z,0.21
2022-12-27T07:14:09.817Z,0.31
2022-12-27T07:16:37.631Z,0.31
2022-12-27T07:19:05.071Z,0.33
2022-12-27T07:21:32.294Z,0.40
2022-12-27T07:23:59.375Z,0.42
2022-12-27T07:26:30.677Z,0.41
2022-12-27T07:29:02.135Z,0.25
2022-12-27T07:31:31.912Z,0.13
2022-12-27T07:34:01.019Z,0.01
2022-12-27T07:36:37.933Z,0.03
2022-12-27T07:39:05.879Z,0.10
2022-12-27T07:41:32.920Z,0.12
2022-12-27T07:44:01.899Z,0.03
2022-12-27T07:46:28.777Z,0.06
2022-12-27T07:48:58.030Z,0.24
2022-12-27T07:51:25.805Z,0.31
2022-12-27T07:53:52.993Z,0.41
2022-12-27T07:56:26.511Z,0.49
2022-12-27T07:58:56.124Z,0.49
2022-12-27T08:01:24.571Z,0.55
2022-12-27T08:03:51.740Z,0.68
2022-12-27T08:06:23.509Z,0.84
2022-12-27T08:08:52.951Z,1.04
2022-12-27T08:11:20.470Z,1.12
2022-12-27T08:13:47.781Z,1.24
2022-12-27T08:16:23.748Z,1.27
2022-12-27T08:18:50.922Z,1.16
2022-12-27T08:21:17.857Z,1.23
2022-12-27T08:23:45.335Z,1.12
2022-12-27T08:26:12.224Z,1.19
2022-12-27T08:28:39.572Z,1.31
2022-12-27T08:31:11.727Z,1.35
2022-12-27T08:33:39.293Z,1.37
2022-12-27T08:36:53.371Z,1.42
2022-12-27T08:38:55.481Z,1.59
2022-12-27T08:41:22.994Z,1.64
2022-12-27T08:43:50.371Z,1.85
2022-12-27T08:46:19.006Z,1.99
2022-12-27T08:48:49.996Z,1.91
2022-12-27T08:51:27.268Z,1.99
2022-12-27T08:54:00.538Z,1.95
2022-12-27T08:56:27.508Z,1.90
2022-12-27T08:58:54.475Z,2.08
2022-12-27T09:01:21.550Z,2.13
2022-12-27T09:03:48.533Z,2.20
2022-12-27T09:06:20.893Z,2.37
2022-12-27T09:08:49.076Z,2.48
2022-12-27T09:11:19.158Z,2.69
2022-12-27T09:13:46.637Z,2.89
2022-12-27T09:16:16.872Z,2.92
2022-12-27T09:18:46.945Z,3.02
2022-12-27T09:21:14.803Z,3.10
2022-12-27T09:23:41.900Z,3.21
2022-12-27T09:26:14.884Z,3.39
2022-12-27T09:28:42.901Z,3.39
2022-12-27T09:31:12.600Z,3.47
2022-12-27T09:33:39.587Z,3.58
2022-12-27T09:36:17.209Z,3.54
2022-12-27T09:38:45.812Z,3.71
2022-12-27T09:42:45.981Z,3.71
2022-12-27T09:44:47.449Z,3.82
2022-12-27T09:47:52.731Z,3.90
2022-12-27T09:50:35.899Z,3.98
2022-12-27T09:53:28.103Z,3.92
2022-12-27T09:55:58.109Z,4.03
2022-12-27T09:58:43.620Z,4.16
2022-12-27T10:01:32.285Z,4.19
2022-12-27T10:04:00.801Z,4.18
2022-12-27T10:06:39.636Z,3.91
2022-12-27T10:09:26.311Z,3.84
2022-12-27T10:11:58.905Z,3.79
2022-12-27T10:15:07.135Z,3.97
2022-12-27T10:17:55.169Z,4.16
2022-12-27T10:20:25.062Z,4.22
2022-12-27T10:23:02.797Z,4.30
2022-12-27T10:25:36.232Z,4.46
2022-12-27T10:28:25.632Z,4.63
2022-12-27T10:30:53.417Z,4.83
2022-12-27T10:33:29.457Z,4.87
2022-12-27T10:35:58.367Z,4.88
2022-12-27T10:38:31.454Z,5.09
2022-12-27T10:41:22.509Z,5.24
2022-12-27T10:43:54.942Z,5.43
2022-12-27T10:46:32.811Z,5.63
2022-12-27T10:49:21.001Z,5.64
2022-12-27T10:51:51.573Z,5.71
2022-12-27T10:54:25.628Z,5.84
2022-12-27T10:56:54.097Z,6.03
2022-12-27T10:59:27.571Z,6.10
2022-12-27T11:02:00.991Z,6.32
2022-12-27T11:04:29.932Z,6.48
2022-12-27T11:07:00.027Z,6.63
2022-12-27T11:09:29.268Z,6.74
2022-12-27T11:12:15.694Z,6.76
2022-12-27T11:14:58.109Z,6.89
2022-12-27T11:17:43.648Z,6.92
2022-12-27T11:20:21.959Z,7.13
2022-12-27T11:23:03.848Z,7.23
2022-12-27T11:25:32.349Z,7.28
2022-12-27T11:28:04.670Z,7.44
2022-12-27T11:30:31.898Z,7.28
2022-12-27T11:33:04.234Z,7.44
2022-12-27T11:35:34.234Z,7.62
2022-12-27T11:38:01.191Z,7.69
2022-12-27T11:40:35.038Z,7.88
2022-12-27T11:43:12.598Z,8.01
2022-12-27T11:45:48.192Z,8.15
2022-12-27T11:48:29.249Z,8.31
2022-12-27T11:51:03.096Z,8.31
2022-12-27T11:54:01.545Z,8.36
2022-12-27T11:56:44.428Z,8.42
2022-12-27T11:59:28.737Z,8.54
2022-12-27T12:02:06.993Z,8.92
2022-12-27T12:04:46.252Z,9.08
2022-12-27T12:07:28.043Z,9.39
2022-12-27T12:10:16.305Z,9.83
2022-12-27T12:13:10.888Z,9.63
2022-12-27T12:15:56.407Z,9.50
2022-12-27T12:18:42.282Z,9.76
2022-12-27T12:21:24.246Z,10.12
2022-12-27T12:24:09.552Z,10.57
2022-12-27T12:26:56.124Z,11.03
2022-12-27T12:29:39.328Z,11.37
2022-12-27T12:32:21.279Z,11.42
2022-12-27T12:34:54.547Z,11.69
2022-12-27T12:37:58.436Z,11.96
2022-12-27T12:40:52.043Z,12.08
2022-12-27T12:43:45.604Z,12.25
2022-12-27T12:46:38.262Z,12.51
2022-12-27T12:49:26.282Z,12.74
2022-12-27T12:52:18.927Z,12.79
2022-12-27T12:55:15.439Z,12.86
2022-12-27T12:57:54.080Z,12.71
2022-12-27T13:00:47.921Z,12.92
2022-12-27T13:03:29.613Z,13.20
2022-12-27T13:06:33.606Z,13.63
2022-12-27T13:09:20.526Z,13.81
2022-12-27T13:12:08.475Z,13.96
2022-12-27T13:15:17.353Z,14.11
2022-12-27T13:17:55.851Z,13.99
2022-12-27T13:26:53.814Z,13.67
2022-12-27T13:29:45.665Z,13.88
2022-12-27T13:32:37.454Z,14.00
2022-12-27T13:35:30.005Z,14.00
2022-12-27T13:38:11.967Z,14.02
2022-12-27T13:41:05.849Z,14.10
2022-12-27T13:43:56.728Z,14.13
2022-12-27T13:46:53.875Z,14.48
2022-12-27T13:55:50.574Z,14.52
2022-12-27T13:58:36.134Z,14.52
2022-12-27T14:01:26.326Z,14.55
2022-12-27T14:04:33.330Z,14.52
2022-12-27T14:07:24.926Z,14.60
2022-12-27T14:10:10.878Z,14.46
2022-12-27T14:13:07.593Z,14.04
2022-12-27T14:15:48.254Z,13.90
2022-12-27T14:18:28.889Z,13.67
2022-12-27T14:21:02.363Z,13.29
2022-12-27T14:23:59.933Z,13.24
2022-12-27T14:26:52.117Z,12.79
2022-12-27T14:29:28.338Z,12.45
2022-12-27T14:32:33.596Z,12.34
2022-12-27T14:35:25.463Z,12.16
2022-12-27T14:38:29.599Z,11.72
2022-12-27T14:41:21.528Z,11.42
2022-12-27T14:44:27.378Z,10.93
2022-12-27T14:47:28.849Z,10.41
2022-12-27T14:50:25.052Z,10.03
2022-12-27T14:53:13.031Z,9.95
2022-12-27T14:55:44.631Z,9.80
2022-12-27T14:58:35.998Z,9.62
2022-12-27T15:01:06.316Z,9.53
2022-12-27T15:03:49.783Z,9.51
2022-12-27T15:06:47.406Z,9.44
2022-12-27T15:09:36.554Z,9.18
2022-12-27T15:12:42.447Z,8.98
2022-12-27T15:15:31.237Z,8.80
2022-12-27T15:18:17.181Z,8.70
2022-12-27T15:20:56.851Z,8.57
2022-12-27T15:23:53.204Z,8.49
2022-12-27T15:26:29.680Z,8.41
2022-12-27T15:29:24.258Z,8.29
2022-12-27T15:32:01.882Z,8.20
2022-12-27T15:34:48.171Z,8.22
2022-12-27T15:37:48.484Z,8.10
2022-12-27T15:40:33.590Z,8.00
2022-12-27T15:43:22.690Z,7.89
2022-12-27T15:46:01.979Z,7.79
2022-12-27T15:48:53.303Z,7.72
2022-12-27T15:51:29.682Z,7.68
2022-12-27T15:54:06.127Z,7.63
2022-12-27T15:56:35.704Z,7.59
2022-12-27T15:59:37.009Z,7.51
2022-12-27T16:02:31.896Z,7.44
2022-12-27T16:05:13.310Z,7.40
2022-12-27T16:07:50.640Z,7.31
2022-12-27T16:10:42.560Z,7.23
2022-12-27T16:13:09.644Z,7.20
2022-12-27T16:15:49.938Z,7.24
2022-12-27T16:18:17.015Z,7.19
2022-12-27T16:20:58.152Z,7.05
2022-12-27T16:23:29.066Z,6.97
2022-12-27T16:26:09.467Z,6.93
2022-12-27T16:28:38.065Z,6.95
2022-12-27T16:31:12.911Z,6.90
2022-12-27T16:33:42.084Z,6.85
2022-12-27T16:36:12.410Z,6.81
2022-12-27T16:38:44.627Z,6.77
2022-12-27T16:41:17.568Z,6.75
2022-12-27T16:43:53.499Z,6.70
2022-12-27T16:46:32.714Z,6.59
2022-12-27T16:49:23.599Z,6.53
2022-12-27T16:52:00.873Z,6.46
2022-12-27T16:54:46.399Z,6.58
2022-12-27T16:57:25.490Z,6.70
2022-12-27T17:00:01.452Z,6.83
2022-12-27T17:02:33.104Z,6.95
2022-12-27T17:05:01.103Z,7.00
2022-12-27T17:07:49.972Z,7.19
2022-12-27T17:10:26.039Z,7.24
2022-12-27T17:13:11.149Z,7.22
2022-12-27T17:15:50.643Z,7.23
2022-12-27T17:18:37.748Z,7.28
2022-12-27T17:21:32.843Z,7.33
2022-12-27T17:24:13.379Z,7.21
2022-12-27T17:26:58.336Z,7.16
2022-12-27T17:29:40.263Z,7.11
2022-12-27T17:32:54.841Z,7.04
2022-12-27T17:35:36.172Z,6.89
2022-12-27T17:38:33.936Z,6.92
2022-12-27T17:42:09.405Z,6.88
2022-12-27T17:44:55.585Z,6.85
2022-12-27T17:47:43.734Z,6.79
2022-12-27T17:50:18.016Z,6.72
2022-12-27T17:53:33.415Z,6.71
2022-12-27T17:56:31.035Z,6.65
2022-12-27T17:59:22.562Z,6.60
2022-12-27T18:01:55.023Z,6.57
2022-12-27T18:04:26.505Z,6.52
2022-12-27T18:06:59.559Z,6.37
2022-12-27T18:09:53.567Z,6.11
2022-12-27T18:12:42.410Z,6.11
2022-12-27T18:15:22.083Z,6.01
2022-12-27T18:17:54.896Z,5.97
2022-12-27T18:20:28.330Z,6.03
2022-12-27T18:23:01.912Z,6.08
2022-12-27T18:25:38.168Z,6.05
2022-12-27T18:28:28.674Z,6.17
2022-12-27T18:31:08.756Z,6.36
2022-12-27T18:33:45.073Z,6.52
2022-12-27T18:36:22.078Z,6.63
2022-12-27T18:38:56.009Z,6.73
2022-12-27T18:41:24.282Z,6.74
2022-12-27T18:43:59.995Z,6.76
2022-12-27T18:46:32.489Z,6.66
2022-12-27T18:49:01.157Z,6.67
2022-12-27T18:51:37.241Z,6.61
2022-12-27T18:54:33.085Z,6.40
2022-12-27T18:57:03.866Z,6.36
2022-12-27T18:59:36.977Z,6.30
2022-12-27T19:02:34.537Z,6.33
2022-12-27T19:05:29.898Z,6.28
2022-12-27T19:08:02.815Z,6.34
2022-12-27T19:10:31.045Z,6.34
2022-12-27T19:12:58.396Z,6.37
2022-12-27T19:15:29.132Z,6.41
2022-12-27T19:18:02.645Z,6.41
2022-12-27T19:20:36.164Z,6.40
2022-12-27T19:23:07.099Z,6.38
2022-12-27T19:25:36.507Z,6.39
2022-12-27T19:28:10.001Z,6.41
2022-12-27T19:30:42.557Z,6.40
2022-12-27T19:33:16.316Z,6.37
2022-12-27T19:35:43.728Z,6.38
2022-12-27T19:38:26.080Z,6.38
2022-12-27T19:41:01.443Z,6.35
2022-12-27T19:43:33.824Z,6.31
2022-12-27T19:46:01.090Z,6.26
2022-12-27T19:48:28.091Z,6.19
2022-12-27T19:50:55.445Z,6.14
2022-12-27T19:53:31.803Z,6.10
2022-12-27T19:55:58.945Z,6.02
2022-12-27T19:58:31.186Z,6.01
2022-12-27T20:00:59.477Z,5.98
2022-12-27T20:03:26.477Z,5.88
2022-12-27T20:06:13.329Z,5.94
2022-12-27T20:08:49.404Z,5.93
2022-12-27T20:11:20.756Z,5.93
2022-12-27T20:13:48.622Z,5.90
2022-12-27T20:16:18.781Z,5.92
2022-12-27T20:18:47.400Z,5.96
2022-12-27T20:21:17.376Z,5.98
2022-12-27T20:23:45.897Z,5.99
2022-12-27T20:26:14.393Z,6.00
2022-12-27T20:28:41.633Z,6.02
2022-12-27T20:31:15.375Z,6.04
2022-12-27T20:33:45.112Z,6.05
2022-12-27T20:36:12.472Z,6.05
2022-12-27T20:38:41.853Z,6.05
2022-12-27T20:41:11.705Z,6.01
2022-12-27T20:43:39.419Z,6.01
2022-12-27T20:46:09.184Z,6.00
2022-12-27T20:48:41.136Z,5.94
2022-12-27T20:51:11.689Z,5.88
2022-12-27T20:53:38.588Z,5.89
2022-12-27T20:56:06.908Z,5.84
2022-12-27T20:58:34.109Z,5.77
2022-12-27T21:01:13.453Z,5.70
2022-12-27T21:03:40.889Z,5.67
2022-12-27T21:06:14.117Z,5.62
2022-12-27T21:08:47.954Z,5.58
2022-12-27T21:11:26.858Z,5.54
2022-12-27T21:13:55.074Z,5.46
2022-12-27T21:16:24.671Z,5.35
2022-12-27T21:18:52.015Z,5.36
2022-12-27T21:21:28.343Z,5.34
2022-12-27T21:23:57.974Z,5.27
2022-12-27T21:26:28.164Z,5.25
2022-12-27T21:28:55.337Z,5.23
2022-12-27T21:31:22.617Z,5.22
2022-12-27T21:33:49.992Z,5.23
2022-12-27T21:36:20.462Z,5.23
2022-12-27T21:38:48.491Z,5.22
2022-12-27T21:41:19.042Z,5.20
2022-12-27T21:43:48.963Z,5.20
2022-12-27T21:46:19.041Z,5.14
2022-12-27T21:48:47.582Z,5.17
2022-12-27T21:51:17.393Z,5.14
2022-12-27T21:53:45.238Z,5.14
2022-12-27T21:56:13.520Z,5.12
2022-12-27T21:58:41.863Z,4.97
2022-12-27T22:01:12.973Z,4.90
2022-12-27T22:03:42.677Z,4.85
2022-12-27T22:06:18.040Z,4.88
2022-12-27T22:08:47.092Z,4.85
2022-12-27T22:11:20.815Z,4.69
2022-12-27T22:13:48.850Z,4.68
2022-12-27T22:16:19.116Z,4.64
2022-12-27T22:18:46.757Z,4.64
2022-12-27T22:21:16.601Z,4.63
2022-12-27T22:23:46.075Z,4.78
2022-12-27T22:26:16.546Z,4.83
2022-12-27T22:28:44.559Z,4.92
2022-12-27T22:31:15.106Z,4.98
2022-12-27T22:33:43.476Z,4.99
2022-12-27T22:36:16.804Z,4.93
2022-12-27T22:38:47.676Z,4.87
2022-12-27T22:41:31.333Z,4.80
2022-12-27T22:44:06.878Z,4.79
2022-12-27T22:49:21.518Z,4.68
2022-12-27T22:51:48.446Z,4.70
2022-12-27T22:54:15.371Z,4.73
2022-12-27T22:56:43.022Z,4.72
2022-12-27T22:59:15.005Z,4.73
2022-12-27T23:01:43.636Z,4.65
2022-12-27T23:04:13.026Z,4.66
2022-12-27T23:06:41.215Z,4.63
2022-12-27T23:09:08.599Z,4.61
2022-12-27T23:11:38.344Z,4.59
2022-12-27T23:14:09.759Z,4.55
2022-12-27T23:16:39.673Z,4.57
2022-12-27T23:19:08.377Z,4.57
2022-12-27T23:21:36.279Z,4.52
2022-12-27T23:24:04.091Z,4.39
2022-12-27T23:26:31.345Z,4.42
2022-12-27T23:28:58.386Z,4.45
2022-12-27T23:31:27.032Z,4.36
2022-12-27T23:33:54.842Z,4.31
2022-12-27T23:36:22.407Z,4.31
2022-12-27T23:38:50.380Z,4.34
2022-12-27T23:41:20.426Z,4.35
2022-12-27T23:43:52.611Z,4.44
2022-12-27T23:46:46.673Z,4.48
2022-12-27T23:49:13.623Z,4.52
2022-12-27T23:51:40.451Z,4.53
2022-12-27T23:54:07.390Z,4.57
2022-12-27T23:56:34.277Z,4.60
2022-12-27T23:59:02.396Z,4.66
